Time;durP1;ratioP1;P1;durP2;ratioP2;P2;SDS_P1;SDS_P2;PMS_P1;PMS_P2;Temp;Humidity;BMP_temperature;BMP_pressure;BME280_temperature;BME280_humidity;BME280_pressure;Samples;Min_cycle;Max_cycle;Signal;HPM_P1;HPM_P2
2023/10/29 00:01:00;;;;;;;5.50;1.67;;;9.30;40.40;;;;;;5037126;28;46618;-66
2023/10/29 00:03:25;;;;;;;6.00;2.00;;;9.30;39.60;;;;;;5034854;28;46506;-66
2023/10/29 00:05:51;;;;;;;4.50;1.47;;;9.30;40.00;;;;;;5036384;28;46377;-65
2023/10/29 00:08:17;;;;;;;10.20;2.07;;;9.30;39.90;;;;;;5032851;28;46465;-65
2023/10/29 00:10:42;;;;;;;12.50;1.90;;;9.30;40.60;;;;;;5035243;28;46451;-65
2023/10/29 00:13:08;;;;;;;7.83;1.60;;;9.40;39.60;;;;;;5033937;28;46646;-66
2023/10/29 00:15:34;;;;;;;4.13;1.60;;;9.30;40.50;;;;;;5029888;28;46607;-65
2023/10/29 00:18:01;;;;;;;4.70;1.80;;;;;;;;;;5030689;28;46487;-65
2023/10/29 00:20:26;;;;;;;5.50;1.73;;;9.20;39.50;;;;;;5030548;28;46464;-64
2023/10/29 00:22:52;;;;;;;3.97;1.70;;;9.20;39.80;;;;;;5031246;28;46311;-65
2023/10/29 00:25:18;;;;;;;4.57;1.70;;;9.20;40.90;;;;;;5043094;28;46686;-65
2023/10/29 00:27:44;;;;;;;4.00;1.70;;;9.20;41.20;;;;;;5039365;28;47200;-65
2023/10/29 00:30:10;;;;;;;4.23;1.87;;;9.20;41.30;;;;;;5032553;28;46703;-66
2023/10/29 00:32:35;;;;;;;6.27;1.70;;;9.20;40.70;;;;;;5034660;28;45827;-64
2023/10/29 00:35:01;;;;;;;4.30;1.93;;;9.20;41.50;;;;;;5034838;28;46435;-65
2023/10/29 00:37:27;;;;;;;7.20;2.10;;;9.20;41.40;;;;;;5032771;28;46256;-65
2023/10/29 00:39:53;;;;;;;5.57;2.37;;;9.20;41.30;;;;;;5031918;28;46380;-65
2023/10/29 00:42:19;;;;;;;2.70;1.57;;;9.20;40.40;;;;;;5030955;28;46483;-65
2023/10/29 00:44:45;;;;;;;4.43;1.90;;;9.20;41.50;;;;;;5029405;28;46464;-65
2023/10/29 00:47:11;;;;;;;4.50;1.60;;;9.20;41.50;;;;;;5032318;28;46462;-65
2023/10/29 00:49:37;;;;;;;7.70;1.50;;;9.20;41.50;;;;;;5031688;28;46638;-65
2023/10/29 00:52:03;;;;;;;3.57;1.70;;;9.10;41.50;;;;;;5034044;28;46285;-65
2023/10/29 00:54:30;;;;;;;4.17;1.67;;;9.10;40.40;;;;;;5034663;28;46427;-65
2023/10/29 00:56:56;;;;;;;6.03;2.40;;;9.00;40.60;;;;;;5033596;28;46508;-65
2023/10/29 00:59:21;;;;;;;3.50;1.70;;;9.00;41.60;;;;;;5033960;28;46602;-65
2023/10/29 01:01:48;;;;;;;2.87;1.53;;;9.00;41.60;;;;;;5030460;28;46522;-65
2023/10/29 01:04:13;;;;;;;5.83;2.20;;;8.90;41.20;;;;;;5031931;28;46506;-65
2023/10/29 01:06:41;;;;;;;5.90;1.67;;;8.80;41.90;;;;;;5034177;28;46566;-65
2023/10/29 01:09:07;;;;;;;3.13;1.87;;;8.90;42.10;;;;;;5032106;28;46637;-65
2023/10/29 01:11:34;;;;;;;5.73;1.77;;;8.90;41.90;;;;;;5034609;28;46728;-64
2023/10/29 01:14:01;;;;;;;4.77;1.97;;;8.90;40.60;;;;;;5024797;28;46136;-65
2023/10/29 01:16:28;;;;;;;3.73;1.67;;;9.00;41.50;;;;;;5033051;28;47055;-65
2023/10/29 01:18:55;;;;;;;2.90;2.03;;;9.00;41.50;;;;;;5036538;28;46443;-65
2023/10/29 01:21:21;;;;;;;3.20;1.77;;;9.00;41.40;;;;;;5037579;28;46497;-65
2023/10/29 01:23:47;;;;;;;4.00;1.30;;;8.90;40.30;;;;;;5032260;28;46427;-65
2023/10/29 01:26:12;;;;;;;8.60;2.07;;;9.00;41.60;;;;;;5031609;28;46383;-66
2023/10/29 01:28:38;;;;;;;7.40;2.20;;;9.00;42.70;;;;;;5030101;28;46411;-64
2023/10/29 01:31:05;;;;;;;4.23;1.50;;;9.00;41.60;;;;;;5033163;28;46416;-66
2023/10/29 01:33:30;;;;;;;3.00;1.70;;;8.90;40.60;;;;;;5032941;28;46419;-64
2023/10/29 01:35:56;;;;;;;5.37;2.00;;;8.90;41.80;;;;;;5032750;28;46682;-65
2023/10/29 01:38:22;;;;;;;3.70;1.80;;;8.90;42.00;;;;;;5033575;28;46339;-65
2023/10/29 01:40:48;;;;;;;3.30;1.57;;;8.80;42.20;;;;;;5031461;28;46760;-65
2023/10/29 01:43:14;;;;;;;5.00;1.90;;;8.70;41.40;;;;;;5034685;28;46527;-65
2023/10/29 01:45:39;;;;;;;3.20;1.70;;;8.70;42.50;;;;;;5032682;28;46473;-65
2023/10/29 01:48:05;;;;;;;3.73;1.43;;;8.60;42.70;;;;;;5027575;28;46689;-65
2023/10/29 01:50:31;;;;;;;4.80;1.50;;;8.60;42.90;;;;;;5033211;28;45891;-65
2023/10/29 01:52:57;;;;;;;6.57;1.90;;;8.50;42.20;;;;;;5031782;28;46642;-65
2023/10/29 01:55:22;;;;;;;3.80;1.73;;;8.50;42.20;;;;;;5032280;28;46612;-65
2023/10/29 01:57:49;;;;;;;9.27;1.60;;;8.50;43.30;;;;;;5033176;28;46379;-65
2023/10/29 02:00:15;;;;;;;7.47;1.70;;;8.50;42.80;;;;;;5032603;28;46340;-65
2023/10/29 02:02:40;;;;;;;10.07;1.60;;;8.50;42.20;;;;;;5032613;28;46370;-65
2023/10/29 02:05:07;;;;;;;3.50;1.67;;;8.60;43.10;;;;;;5034683;28;48195;-65
2023/10/29 02:07:32;;;;;;;3.70;1.60;;;8.60;42.70;;;;;;5037438;28;46080;-65
2023/10/29 02:09:58;;;;;;;4.50;1.60;;;8.70;42.40;;;;;;5035259;28;46435;-65
2023/10/29 02:12:23;;;;;;;3.40;1.67;;;8.90;41.10;;;;;;5035647;28;46639;-65
2023/10/29 02:14:49;;;;;;;2.80;1.33;;;8.90;41.00;;;;;;5036562;28;46177;-67
2023/10/29 02:17:15;;;;;;;2.10;1.37;;;8.90;41.90;;;;;;5031654;28;46446;-67
2023/10/29 02:19:40;;;;;;;9.63;1.80;;;8.90;42.10;;;;;;5031080;28;46424;-66
2023/10/29 02:22:06;;;;;;;3.20;1.47;;;9.00;41.90;;;;;;5029372;28;46480;-67
2023/10/29 02:24:32;;;;;;;4.30;1.43;;;9.00;40.70;;;;;;5032968;28;46486;-66
2023/10/29 02:26:57;;;;;;;3.30;1.40;;;9.00;40.90;;;;;;5032907;28;46379;-66
2023/10/29 02:29:23;;;;;;;3.27;1.57;;;9.00;41.60;;;;;;5035413;28;46450;-66
2023/10/29 02:31:49;;;;;;;8.03;2.27;;;9.00;41.90;;;;;;5033226;28;46421;-67
2023/10/29 02:34:14;;;;;;;5.40;1.53;;;8.90;41.10;;;;;;5029824;28;48047;-68
2023/10/29 02:36:40;;;;;;;5.10;1.70;;;8.70;41.70;;;;;;5031475;28;46380;-67
2023/10/29 02:39:06;;;;;;;3.07;1.50;;;;;;;;;;5034934;28;46364;-67
2023/10/29 02:41:32;;;;;;;3.87;1.50;;;;;;;;;;5033936;28;46555;-66
2023/10/29 02:43:58;;;;;;;3.70;1.60;;;;;;;;;;5030392;28;46612;-66
2023/10/29 02:46:27;;;;;;;4.80;1.60;;;8.40;42.80;;;;;;5032729;28;46363;-66
2023/10/29 02:48:52;;;;;;;2.00;1.23;;;8.30;43.30;;;;;;5033256;28;46618;-67
2023/10/29 02:51:19;;;;;;;4.90;2.10;;;;;;;;;;5033557;28;46635;-66
2023/10/29 02:53:44;;;;;;;3.43;1.60;;;8.20;43.60;;;;;;5039368;28;46341;-67
2023/10/29 02:56:10;;;;;;;4.33;1.53;;;;;;;;;;5028429;28;46718;-66
2023/10/29 02:58:36;;;;;;;2.00;1.20;;;8.10;43.90;;;;;;5033646;28;46290;-67
2023/10/29 03:01:07;;;;;;;3.13;1.30;;;8.10;44.30;;;;;;5031434;28;46551;-67
2023/10/29 03:03:32;;;;;;;2.77;1.57;;;8.00;44.00;;;;;;5033455;28;47375;-67
2023/10/29 03:05:58;;;;;;;4.60;1.53;;;;;;;;;;5035123;28;46318;-67
2023/10/29 03:08:24;;;;;;;3.40;1.50;;;8.00;43.70;;;;;;5033923;28;46611;-65
2023/10/29 03:10:50;;;;;;;5.20;1.57;;;8.00;44.90;;;;;;5027621;28;46360;-67
2023/10/29 03:13:16;;;;;;;2.13;1.43;;;8.00;44.10;;;;;;5032513;28;47484;-67
2023/10/29 03:15:42;;;;;;;3.77;1.60;;;8.00;44.30;;;;;;5029336;28;46412;-67
2023/10/29 03:18:08;;;;;;;2.63;1.60;;;8.00;44.00;;;;;;5036659;28;46751;-66
2023/10/29 03:20:33;;;;;;;4.93;1.90;;;8.10;45.00;;;;;;5029262;28;46396;-65
2023/10/29 03:22:59;;;;;;;3.10;1.27;;;;;;;;;;5034901;28;47388;-66
2023/10/29 03:25:25;;;;;;;3.97;1.70;;;8.00;43.90;;;;;;5027540;28;46698;-66
2023/10/29 03:27:50;;;;;;;3.83;1.57;;;8.00;45.30;;;;;;5033273;28;46447;-67
2023/10/29 03:30:16;;;;;;;3.00;1.40;;;7.90;45.50;;;;;;5034252;28;46711;-67
2023/10/29 03:32:42;;;;;;;4.97;1.63;;;7.80;45.00;;;;;;5035445;28;46170;-67
2023/10/29 03:35:07;;;;;;;2.37;1.50;;;7.70;45.20;;;;;;5025873;28;46513;-67
2023/10/29 03:37:33;;;;;;;11.10;1.83;;;7.70;45.40;;;;;;5036783;28;46408;-67
2023/10/29 03:39:59;;;;;;;2.70;1.30;;;;;;;;;;5032166;28;47083;-66
2023/10/29 03:42:25;;;;;;;2.17;1.20;;;7.60;45.70;;;;;;5036740;28;46461;-66
2023/10/29 03:44:50;;;;;;;4.60;1.50;;;7.60;46.50;;;;;;5034232;28;46432;-66
2023/10/29 03:47:16;;;;;;;3.63;1.70;;;7.60;46.60;;;;;;5036445;28;46416;-67
2023/10/29 03:49:42;;;;;;;4.07;1.50;;;7.50;46.60;;;;;;5030038;28;46388;-66
2023/10/29 03:52:08;;;;;;;3.30;1.60;;;;;;;;;;5029089;28;46649;-67
2023/10/29 03:54:34;;;;;;;5.17;1.83;;;7.40;46.20;;;;;;5037797;28;46992;-67
2023/10/29 03:57:00;;;;;;;5.73;1.70;;;7.40;47.30;;;;;;5035480;28;46853;-67
2023/10/29 03:59:25;;;;;;;2.77;1.40;;;7.50;47.50;;;;;;5038148;28;46646;-66
2023/10/29 04:01:51;;;;;;;4.30;1.63;;;7.50;46.60;;;;;;5033505;28;46471;-67
2023/10/29 04:04:17;;;;;;;5.63;1.80;;;;;;;;;;5031779;28;46502;-67
2023/10/29 04:06:43;;;;;;;2.70;1.27;;;7.50;46.50;;;;;;5036343;28;46412;-66
2023/10/29 04:09:09;;;;;;;2.70;1.50;;;7.50;48.20;;;;;;5038034;28;46419;-67
2023/10/29 04:11:35;;;;;;;6.20;1.67;;;7.60;48.90;;;;;;5037997;28;47203;-66
2023/10/29 04:14:01;;;;;;;5.47;2.13;;;7.40;47.50;;;;;;5033964;28;46243;-66
2023/10/29 04:16:27;;;;;;;3.37;1.53;;;7.50;48.50;;;;;;5028868;28;46491;-66
2023/10/29 04:18:53;;;;;;;7.27;2.00;;;7.50;48.50;;;;;;5030727;28;46658;-65
2023/10/29 04:21:19;;;;;;;7.07;1.90;;;7.50;47.80;;;;;;5035883;28;46629;-65
2023/10/29 04:23:44;;;;;;;10.63;1.90;;;7.50;47.80;;;;;;5033692;28;46560;-65
2023/10/29 04:26:10;;;;;;;5.20;1.73;;;7.40;48.10;;;;;;5034655;28;46483;-68
2023/10/29 04:28:36;;;;;;;4.40;1.60;;;;;;;;;;5037425;28;46502;-65
2023/10/29 04:31:02;;;;;;;3.40;1.70;;;7.40;47.90;;;;;;5031410;28;46493;-67
2023/10/29 04:33:28;;;;;;;3.33;1.70;;;7.30;47.90;;;;;;5036707;28;46387;-66
2023/10/29 04:35:54;;;;;;;2.67;1.60;;;7.30;49.10;;;;;;5031178;28;46347;-67
2023/10/29 04:38:19;;;;;;;8.20;1.67;;;7.30;49.10;;;;;;5031385;28;46742;-66
2023/10/29 04:40:45;;;;;;;3.40;1.77;;;7.20;48.80;;;;;;5035176;28;46191;-67
2023/10/29 04:43:11;;;;;;;4.60;1.93;;;7.10;48.90;;;;;;5029814;28;46651;-67
2023/10/29 04:45:37;;;;;;;3.90;1.53;;;7.10;48.90;;;;;;5038192;28;46652;-66
2023/10/29 04:48:03;;;;;;;4.17;1.70;;;7.10;49.00;;;;;;5028545;28;46330;-65
2023/10/29 04:50:30;;;;;;;3.67;1.70;;;7.10;48.80;;;;;;5030643;28;46485;-66
2023/10/29 04:52:57;;;;;;;2.53;1.53;;;7.10;49.00;;;;;;5033273;28;46408;-65
2023/10/29 04:55:22;;;;;;;10.53;1.80;;;7.10;49.40;;;;;;5031961;28;46373;-66
2023/10/29 04:57:48;;;;;;;3.30;1.27;;;7.10;49.40;;;;;;5032397;28;46570;-65
2023/10/29 05:00:13;;;;;;;4.40;1.63;;;7.00;48.50;;;;;;5033152;28;46941;-65
2023/10/29 05:02:39;;;;;;;3.40;1.30;;;7.20;48.40;;;;;;5032381;28;46561;-65
2023/10/29 05:05:06;;;;;;;3.37;1.40;;;7.00;49.30;;;;;;5034235;28;46408;-65
2023/10/29 05:07:33;;;;;;;3.87;1.47;;;7.00;49.30;;;;;;5030652;28;46691;-65
2023/10/29 05:09:59;;;;;;;10.70;1.80;;;6.90;49.50;;;;;;5033644;28;47138;-65
2023/10/29 05:12:24;;;;;;;4.83;1.60;;;6.80;48.80;;;;;;5034633;28;46466;-65
2023/10/29 05:14:51;;;;;;;7.47;1.50;;;;;;;;;;5029925;28;46472;-65
2023/10/29 05:17:17;;;;;;;4.87;1.70;;;6.60;48.70;;;;;;5035244;28;46488;-65
2023/10/29 05:19:44;;;;;;;3.03;1.50;;;6.70;49.80;;;;;;5035553;28;46749;-65
2023/10/29 05:22:10;;;;;;;2.83;1.43;;;6.50;48.60;;;;;;5031874;28;46494;-65
2023/10/29 05:24:36;;;;;;;3.40;1.50;;;6.50;49.70;;;;;;5036558;28;46392;-65
2023/10/29 05:27:03;;;;;;;3.53;1.93;;;6.50;49.70;;;;;;5027552;28;46609;-66
2023/10/29 05:29:30;;;;;;;6.30;1.60;;;6.30;48.60;;;;;;5029138;28;46511;-67
2023/10/29 05:31:56;;;;;;;4.93;1.63;;;6.40;49.50;;;;;;5032617;28;46236;-67
2023/10/29 05:34:22;;;;;;;2.33;1.23;;;6.20;48.40;;;;;;5028334;28;46390;-67
2023/10/29 05:36:47;;;;;;;4.23;1.57;;;6.10;49.40;;;;;;5035536;28;46142;-68
2023/10/29 05:39:14;;;;;;;3.10;1.43;;;6.10;49.20;;;;;;5040992;28;47326;-65
2023/10/29 05:41:40;;;;;;;3.60;1.83;;;6.10;49.00;;;;;;5042281;28;45809;-68
2023/10/29 05:44:06;;;;;;;4.13;1.90;;;6.20;48.90;;;;;;5037411;28;46407;-68
2023/10/29 05:46:32;;;;;;;3.70;1.73;;;6.30;49.50;;;;;;5027330;28;45871;-68
2023/10/29 05:48:58;;;;;;;4.40;1.33;;;6.30;49.50;;;;;;5032936;28;46931;-67
2023/10/29 05:51:24;;;;;;;3.20;1.40;;;6.40;49.50;;;;;;5037832;28;46456;-65
2023/10/29 05:53:49;;;;;;;3.33;2.07;;;6.30;48.40;;;;;;5043009;28;46362;-67
2023/10/29 05:56:18;;;;;;;2.10;1.30;;;6.30;49.50;;;;;;5037416;28;46779;-66
2023/10/29 05:58:43;;;;;;;3.87;1.60;;;6.30;49.40;;;;;;5036492;28;46375;-67
2023/10/29 06:01:10;;;;;;;2.93;1.50;;;6.30;49.40;;;;;;5034340;28;46446;-67
2023/10/29 06:03:36;;;;;;;3.17;1.50;;;6.40;48.50;;;;;;5036522;28;46379;-66
2023/10/29 06:06:02;;;;;;;4.40;1.80;;;6.50;49.70;;;;;;5038506;28;46381;-67
2023/10/29 06:08:28;;;;;;;4.67;1.53;;;6.70;49.00;;;;;;5035581;28;46705;-68
2023/10/29 06:10:53;;;;;;;7.10;1.33;;;6.70;48.40;;;;;;5031917;28;46464;-68
2023/10/29 06:13:19;;;;;;;2.50;1.40;;;6.80;47.00;;;;;;5041933;28;46072;-67
2023/10/29 06:15:45;;;;;;;4.90;1.50;;;6.90;47.20;;;;;;5030338;28;46470;-68
2023/10/29 06:18:12;;;;;;;3.23;1.30;;;;;;;;;;5033679;28;47212;-68
2023/10/29 06:20:41;;;;;;;2.83;1.60;;;6.90;46.60;;;;;;5026110;28;46650;-68
2023/10/29 06:23:08;;;;;;;3.60;1.40;;;6.90;47.10;;;;;;5033227;28;46716;-67
2023/10/29 06:25:34;;;;;;;2.27;1.30;;;6.90;47.90;;;;;;5029867;28;46453;-67
2023/10/29 06:27:59;;;;;;;2.67;1.50;;;7.00;47.80;;;;;;5035781;28;47277;-68
2023/10/29 06:30:25;;;;;;;2.77;1.30;;;7.00;47.80;;;;;;5041355;28;46840;-67
2023/10/29 06:32:51;;;;;;;2.13;1.40;;;7.10;47.00;;;;;;5042116;28;46426;-66
2023/10/29 06:35:16;;;;;;;2.00;1.10;;;7.10;47.80;;;;;;5037059;28;46381;-68
2023/10/29 06:37:42;;;;;;;2.77;1.40;;;7.20;47.90;;;;;;5029651;28;46436;-67
2023/10/29 06:40:08;;;;;;;3.50;1.60;;;7.00;48.00;;;;;;5040510;28;46400;-67
2023/10/29 06:42:34;;;;;;;3.20;1.50;;;6.80;48.80;;;;;;5030711;28;46506;-68
2023/10/29 06:44:59;;;;;;;4.20;1.73;;;7.00;48.70;;;;;;5041444;28;46368;-68
2023/10/29 06:47:25;;;;;;;3.47;1.50;;;7.00;49.20;;;;;;5031143;28;47149;-67
2023/10/29 06:49:51;;;;;;;5.93;1.60;;;7.20;48.80;;;;;;5031682;28;46376;-67
2023/10/29 06:52:17;;;;;;;2.50;1.43;;;7.30;48.80;;;;;;5034224;28;46478;-67
2023/10/29 06:54:42;;;;;;;5.10;3.10;;;7.30;49.40;;;;;;5029292;28;46396;-65
2023/10/29 06:57:08;;;;;;;3.40;1.90;;;7.50;49.10;;;;;;5036387;28;46415;-67
2023/10/29 06:59:34;;;;;;;2.73;1.53;;;7.70;48.40;;;;;;5038322;28;46376;-68
2023/10/29 07:01:59;;;;;;;4.57;1.57;;;8.00;47.10;;;;;;5028937;28;46490;-66
2023/10/29 07:04:25;;;;;;;3.50;1.73;;;8.00;46.70;;;;;;5036188;28;46415;-66
2023/10/29 07:06:51;;;;;;;4.33;1.70;;;8.20;46.60;;;;;;5037852;28;47086;-67
2023/10/29 07:09:18;;;;;;;3.40;1.53;;;8.30;47.30;;;;;;5030816;28;46175;-66
2023/10/29 07:11:44;;;;;;;2.87;1.63;;;8.40;47.10;;;;;;5037544;28;46478;-67
2023/10/29 07:14:11;;;;;;;2.60;1.63;;;8.50;45.50;;;;;;5037741;28;46406;-67
2023/10/29 07:16:43;;;;;;;3.10;1.90;;;8.70;46.30;;;;;;5033545;28;47100;-67
2023/10/29 07:19:09;;;;;;;3.00;1.73;;;8.80;45.80;;;;;;5040501;28;46452;-68
2023/10/29 07:21:35;;;;;;;4.30;2.30;;;9.00;44.70;;;;;;5039127;28;46440;-67
2023/10/29 07:24:03;;;;;;;4.60;2.20;;;9.00;44.50;;;;;;5033119;28;46528;-67
2023/10/29 07:26:29;;;;;;;3.13;1.53;;;9.00;45.60;;;;;;5051628;28;47044;-67
2023/10/29 07:28:54;;;;;;;3.00;1.83;;;9.00;45.70;;;;;;5031791;28;46487;-68
2023/10/29 07:31:20;;;;;;;8.70;1.90;;;9.00;46.00;;;;;;5028054;28;46408;-67
2023/10/29 07:33:45;;;;;;;3.67;2.03;;;9.10;45.00;;;;;;5038927;28;46577;-67
2023/10/29 07:36:11;;;;;;;3.33;1.47;;;9.10;45.80;;;;;;5040981;28;47129;-68
2023/10/29 07:38:37;;;;;;;7.03;3.30;;;;;;;;;;5030419;28;46362;-67
2023/10/29 07:41:03;;;;;;;32.90;14.67;;;9.30;44.70;;;;;;5024782;28;46820;-68
2023/10/29 07:43:28;;;;;;;7.20;3.40;;;9.60;44.30;;;;;;5037269;28;46327;-66
2023/10/29 07:46:01;;;;;;;6.13;2.47;;;9.70;45.40;;;;;;5033781;28;46615;-67
2023/10/29 07:48:27;;;;;;;4.60;2.40;;;9.80;45.00;;;;;;5032551;28;46354;-68
2023/10/29 07:50:53;;;;;;;4.27;1.93;;;;;;;;;;5031138;28;46604;-67
2023/10/29 07:53:19;;;;;;;4.97;1.93;;;;;;;;;;5029729;28;46412;-67
2023/10/29 07:55:46;;;;;;;7.00;3.97;;;;;;;;;;5042108;28;46961;-68
2023/10/29 07:58:11;;;;;;;7.10;2.57;;;;;;;;;;5036046;28;46447;-68
2023/10/29 08:00:37;;;;;;;4.43;2.07;;;;;;;;;;5037958;28;45921;-67
2023/10/29 08:03:04;;;;;;;7.70;5.10;;;10.70;41.60;;;;;;5029641;28;46519;-66
2023/10/29 08:05:29;;;;;;;10.43;3.87;;;10.90;41.60;;;;;;5035774;28;46131;-67
2023/10/29 08:07:55;;;;;;;6.70;3.80;;;10.90;42.40;;;;;;5044101;28;46776;-65
2023/10/29 08:10:21;;;;;;;6.10;3.10;;;11.10;42.10;;;;;;5045645;28;46392;-66
2023/10/29 08:12:47;;;;;;;6.77;2.87;;;11.30;40.80;;;;;;5038685;28;46200;-65
2023/10/29 08:15:13;;;;;;;16.03;8.90;;;11.40;41.80;;;;;;5038734;28;46865;-66
2023/10/29 08:17:39;;;;;;;14.27;8.40;;;11.50;41.50;;;;;;5038940;28;46507;-68
2023/10/29 08:20:06;;;;;;;11.50;4.30;;;11.60;41.30;;;;;;5024400;28;46431;-67
2023/10/29 08:22:32;;;;;;;5.23;2.17;;;11.90;39.90;;;;;;5039613;28;46482;-66
2023/10/29 08:24:59;;;;;;;5.30;3.10;;;11.90;41.00;;;;;;5037182;28;46988;-65
2023/10/29 08:27:25;;;;;;;9.07;4.13;;;12.10;40.50;;;;;;5034783;28;46452;-66
2023/10/29 08:29:52;;;;;;;12.50;4.40;;;12.30;40.60;;;;;;5038899;28;46367;-66
2023/10/29 08:32:17;;;;;;;4.10;1.60;;;12.50;39.70;;;;;;5030632;28;46456;-66
2023/10/29 08:34:43;;;;;;;3.30;1.40;;;12.50;40.80;;;;;;5037026;28;46425;-66
2023/10/29 08:37:10;;;;;;;3.80;1.93;;;12.60;40.50;;;;;;5038743;28;46476;-66
2023/10/29 08:39:36;;;;;;;2.70;1.30;;;12.80;39.00;;;;;;5038185;28;46401;-65
2023/10/29 08:42:02;;;;;;;3.30;1.40;;;12.80;39.50;;;;;;5034954;28;46503;-66
2023/10/29 08:44:29;;;;;;;2.87;1.10;;;13.00;38.00;;;;;;5031254;28;46641;-66
2023/10/29 08:46:54;;;;;;;2.70;1.37;;;13.10;38.80;;;;;;5034714;28;46490;-66
2023/10/29 08:49:20;;;;;;;3.47;1.20;;;13.20;38.30;;;;;;5029540;28;46530;-67
2023/10/29 08:51:46;;;;;;;2.30;1.20;;;13.20;36.90;;;;;;5026599;28;46484;-67
2023/10/29 08:54:12;;;;;;;6.77;1.80;;;13.20;36.60;;;;;;5027095;28;47197;-67
2023/10/29 08:56:37;;;;;;;3.77;1.70;;;13.30;37.70;;;;;;5024733;28;46672;-68
2023/10/29 08:59:05;;;;;;;2.67;1.50;;;13.40;37.40;;;;;;5026860;28;46425;-67
2023/10/29 09:01:33;;;;;;;3.73;1.43;;;13.60;36.00;;;;;;5027879;28;46762;-66
2023/10/29 09:04:00;;;;;;;7.50;1.70;;;13.70;35.70;;;;;;5025077;28;46981;-66
2023/10/29 09:06:26;;;;;;;3.00;1.23;;;13.80;36.60;;;;;;5026815;28;46463;-68
2023/10/29 09:08:52;;;;;;;3.70;1.47;;;14.00;36.00;;;;;;5026749;28;46781;-66
2023/10/29 09:11:18;;;;;;;5.00;1.63;;;14.20;35.20;;;;;;5025065;28;46409;-66
2023/10/29 09:13:44;;;;;;;4.30;1.70;;;14.50;33.70;;;;;;5025543;28;46338;-67
2023/10/29 09:16:10;;;;;;;2.73;1.40;;;14.60;34.40;;;;;;5029574;28;46449;-67
2023/10/29 09:18:36;;;;;;;2.50;1.23;;;14.70;34.40;;;;;;5025135;28;46796;-66
2023/10/29 09:21:02;;;;;;;2.80;1.40;;;;;;;;;;5028186;28;46349;-68
2023/10/29 09:23:29;;;;;;;4.10;1.27;;;;;;;;;;5024853;28;47091;-68
2023/10/29 09:25:55;;;;;;;7.77;1.50;;;15.00;32.20;;;;;;5024819;28;46846;-66
2023/10/29 09:28:21;;;;;;;4.60;1.17;;;15.00;33.20;;;;;;5026996;28;46793;-65
2023/10/29 09:30:47;;;;;;;3.20;1.43;;;15.10;32.00;;;;;;5031017;28;45907;-66
2023/10/29 09:33:15;;;;;;;3.13;1.40;;;;;;;;;;5028440;28;47237;-66
2023/10/29 09:35:41;;;;;;;2.83;1.37;;;15.20;31.50;;;;;;5030032;28;46463;-65
2023/10/29 09:38:07;;;;;;;6.37;1.40;;;15.30;32.60;;;;;;5029663;28;46353;-66
2023/10/29 09:40:33;;;;;;;2.93;1.37;;;15.40;31.90;;;;;;5021009;28;47611;-66
2023/10/29 09:43:03;;;;;;;3.03;1.33;;;15.60;29.90;;;;;;5024714;28;46723;-66
2023/10/29 09:45:32;;;;;;;4.27;1.10;;;15.70;30.70;;;;;;5040353;28;45753;-67
2023/10/29 09:47:59;;;;;;;3.63;1.40;;;15.70;30.10;;;;;;5028607;28;46427;-65
2023/10/29 09:50:25;;;;;;;3.67;1.30;;;15.70;30.00;;;;;;5040947;28;46388;-67
2023/10/29 09:52:53;;;;;;;2.90;1.50;;;15.80;29.40;;;;;;5021078;28;46730;-67
2023/10/29 09:55:20;;;;;;;3.77;1.37;;;15.00;30.70;;;;;;5018758;28;46533;-67
2023/10/29 09:57:46;;;;;;;3.23;1.43;;;16.00;30.00;;;;;;5022354;28;46397;-66
2023/10/29 10:00:15;;;;;;;3.23;1.47;;;16.00;29.10;;;;;;5020414;28;46613;-68
2023/10/29 10:02:55;;;;;;;6.70;1.57;;;16.00;29.10;;;;;;5020444;28;47321;-66
2023/10/29 10:05:22;;;;;;;3.53;1.60;;;16.00;30.00;;;;;;5020398;28;46396;-66
2023/10/29 10:07:49;;;;;;;4.00;1.30;;;16.00;30.30;;;;;;5020018;28;46578;-68
2023/10/29 10:10:14;;;;;;;2.67;1.47;;;15.90;30.00;;;;;;5020561;28;47006;-68
2023/10/29 10:12:51;;;;;;;3.40;1.30;;;15.80;29.40;;;;;;5021093;28;46477;-67
2023/10/29 10:15:19;;;;;;;2.93;1.40;;;15.80;30.20;;;;;;5033289;28;46445;-69
2023/10/29 10:17:46;;;;;;;3.30;1.20;;;15.90;30.30;;;;;;5022222;28;46419;-68
2023/10/29 10:20:12;;;;;;;3.00;1.30;;;16.30;29.90;;;;;;5031448;28;46294;-68
2023/10/29 10:22:37;;;;;;;3.67;1.10;;;16.50;29.00;;;;;;5040150;28;46761;-68
2023/10/29 10:25:03;;;;;;;2.33;1.20;;;16.50;29.60;;;;;;5040099;28;46380;-68
2023/10/29 10:27:29;;;;;;;3.67;1.20;;;16.80;28.80;;;;;;5040524;28;46544;-67
2023/10/29 10:29:55;;;;;;;3.20;1.10;;;17.10;27.80;;;;;;5018228;28;46628;-66
2023/10/29 10:32:24;;;;;;;2.87;1.20;;;17.50;24.90;;;;;;5019593;28;46504;-68
2023/10/29 10:34:52;;;;;;;2.33;0.90;;;17.60;25.30;;;;;;5041873;22;46648;-65
2023/10/29 10:37:18;;;;;;;4.03;1.40;;;17.60;25.10;;;;;;5044914;28;46690;-66
2023/10/29 10:39:44;;;;;;;2.20;0.90;;;17.60;23.80;;;;;;5048353;28;45950;-67
2023/10/29 10:42:09;;;;;;;2.70;1.10;;;17.70;24.10;;;;;;5046646;28;47165;-68
2023/10/29 10:44:38;;;;;;;2.70;1.10;;;17.70;23.00;;;;;;5045287;28;46594;-68
2023/10/29 10:47:04;;;;;;;2.90;1.30;;;17.70;23.80;;;;;;5042861;28;46860;-67
2023/10/29 10:49:34;;;;;;;2.83;1.20;;;17.80;23.70;;;;;;5045895;28;46501;-66
2023/10/29 10:52:02;;;;;;;2.80;1.10;;;17.90;22.90;;;;;;5046800;28;46525;-66
2023/10/29 10:54:29;;;;;;;2.63;1.10;;;17.90;22.20;;;;;;5047562;28;46629;-65
2023/10/29 10:56:56;;;;;;;2.53;1.30;;;17.80;22.60;;;;;;5043153;28;46170;-65
2023/10/29 10:59:22;;;;;;;3.90;1.30;;;17.80;23.10;;;;;;5047947;28;46613;-66
2023/10/29 11:01:48;;;;;;;7.07;1.10;;;17.80;23.10;;;;;;5045304;28;46609;-65
2023/10/29 11:04:15;;;;;;;3.40;1.10;;;17.70;22.20;;;;;;5047101;28;46419;-65
2023/10/29 11:06:42;;;;;;;3.47;1.20;;;17.70;22.90;;;;;;5046329;28;46550;-65
2023/10/29 11:09:12;;;;;;;2.77;1.23;;;17.70;22.40;;;;;;5046835;28;46867;-66
2023/10/29 11:11:53;;;;;;;7.47;1.87;;;17.60;22.30;;;;;;5046757;28;46601;-65
2023/10/29 11:14:19;;;;;;;2.70;1.10;;;17.70;21.30;;;;;;5062726;28;46848;-65
2023/10/29 11:16:53;;;;;;;3.57;1.27;;;17.70;22.20;;;;;;5049829;28;46438;-65
2023/10/29 11:19:47;;;;;;;5.03;1.17;;;17.80;21.50;;;;;;5048004;28;46416;-66
2023/10/29 11:22:15;;;;;;;3.73;1.10;;;18.00;20.20;;;;;;5047798;28;46779;-64
2023/10/29 11:24:41;;;;;;;4.40;1.30;;;18.00;21.10;;;;;;5029545;27;46559;-65
2023/10/29 11:27:36;;;;;;;2.60;1.37;;;18.10;19.90;;;;;;5040974;28;46545;-66
2023/10/29 11:30:12;;;;;;;3.33;1.20;;;18.20;20.00;;;;;;5043393;28;46388;-66
2023/10/29 11:32:38;;;;;;;2.80;1.40;;;18.60;19.00;;;;;;5042085;28;47820;-65
2023/10/29 11:35:24;;;;;;;2.80;1.30;;;18.60;19.60;;;;;;5043364;28;46180;-65
2023/10/29 11:37:52;;;;;;;3.30;1.40;;;18.60;17.20;;;;;;5046412;28;46493;-66
2023/10/29 11:40:23;;;;;;;2.90;1.10;;;18.60;17.90;;;;;;5042114;28;46792;-66
2023/10/29 11:42:57;;;;;;;3.60;1.40;;;18.60;17.00;;;;;;5043719;28;46703;-66
2023/10/29 11:45:31;;;;;;;2.47;1.30;;;18.70;17.60;;;;;;5044685;28;46584;-65
2023/10/29 11:48:07;;;;;;;3.07;1.33;;;18.70;17.50;;;;;;5043836;28;46468;-65
2023/10/29 11:50:39;;;;;;;2.37;1.10;;;18.70;17.40;;;;;;5046273;28;46784;-66
2023/10/29 11:53:06;;;;;;;4.13;1.33;;;;;;;;;;5043249;28;46614;-66
2023/10/29 11:55:40;;;;;;;3.40;1.17;;;18.70;17.20;;;;;;5047181;28;46500;-65
2023/10/29 11:58:07;;;;;;;2.50;1.20;;;18.60;17.50;;;;;;5045454;28;46156;-66
2023/10/29 12:00:42;;;;;;;4.53;1.17;;;18.70;17.50;;;;;;5045173;28;46437;-67
2023/10/29 12:03:08;;;;;;;4.60;1.60;;;18.80;16.10;;;;;;5043427;28;47339;-63
2023/10/29 12:05:34;;;;;;;5.07;1.40;;;18.80;16.90;;;;;;5044327;28;46434;-64
2023/10/29 12:08:01;;;;;;;5.80;1.60;;;18.70;15.90;;;;;;5043652;28;45914;-66
2023/10/29 12:10:27;;;;;;;2.80;1.40;;;18.80;16.50;;;;;;5043151;28;46701;-64
2023/10/29 12:12:53;;;;;;;5.37;1.77;;;18.80;14.90;;;;;;5041865;28;47038;-65
2023/10/29 12:15:19;;;;;;;3.27;1.30;;;18.80;16.00;;;;;;5048847;28;46527;-65
2023/10/29 12:17:45;;;;;;;2.83;1.20;;;18.70;14.90;;;;;;5045272;28;46485;-65
2023/10/29 12:20:25;;;;;;;2.77;1.20;;;18.50;14.30;;;;;;5048186;28;46833;-65
2023/10/29 12:22:57;;;;;;;3.20;1.20;;;18.50;14.30;;;;;;5053377;28;46362;-65
2023/10/29 12:25:27;;;;;;;4.47;1.50;;;18.50;15.20;;;;;;5046631;28;46346;-65
2023/10/29 12:27:53;;;;;;;3.53;1.40;;;18.50;15.20;;;;;;5064122;28;46354;-65
2023/10/29 12:30:41;;;;;;;4.60;1.20;;;18.40;15.50;;;;;;5046083;28;46500;-65
2023/10/29 12:33:21;;;;;;;3.00;1.50;;;18.30;15.20;;;;;;5050369;28;46722;-66
2023/10/29 12:35:47;;;;;;;3.57;1.30;;;18.30;16.00;;;;;;5045739;28;46442;-65
2023/10/29 12:38:13;;;;;;;3.03;1.30;;;18.30;16.60;;;;;;5052592;28;46380;-65
2023/10/29 12:41:01;;;;;;;3.67;1.50;;;18.20;16.10;;;;;;5056145;28;46332;-65
2023/10/29 12:43:39;;;;;;;10.20;1.80;;;18.20;15.90;;;;;;5046939;28;46023;-64
2023/10/29 12:46:16;;;;;;;3.47;1.50;;;18.10;16.90;;;;;;5052583;28;46712;-64
2023/10/29 12:49:01;;;;;;;4.50;1.70;;;18.00;17.00;;;;;;5053449;28;46805;-63
2023/10/29 12:51:35;;;;;;;3.00;1.20;;;17.90;16.80;;;;;;5056107;28;46437;-65
2023/10/29 12:54:13;;;;;;;5.83;1.40;;;17.90;16.10;;;;;;5049238;28;46961;-65
2023/10/29 12:56:52;;;;;;;3.57;1.40;;;17.90;17.00;;;;;;5052674;28;46631;-65
2023/10/29 12:59:20;;;;;;;3.60;1.60;;;17.70;16.60;;;;;;5047445;28;46491;-65